sensor_id;sensor_type;location;lat;lon;timestamp;P1;durP1;ratioP1;P2;durP2;ratioP2
83761;SDS011;73752;49.594;8.734;2023-12-20T00:01:17;38.80;;;20.40;;
83761;SDS011;73752;49.594;8.734;2023-12-20T00:03:42;40.58;;;20.30;;
83761;SDS011;73752;49.594;8.734;2023-12-20T00:06:07;35.92;;;18.67;;
83761;SDS011;73752;49.594;8.734;2023-12-20T00:08:33;36.38;;;18.77;;
83761;SDS011;73752;49.594;8.734;2023-12-20T00:10:58;37.75;;;19.92;;
83761;SDS011;73752;49.594;8.734;2023-12-20T00:13:23;33.83;;;19.48;;
83761;SDS011;73752;49.594;8.734;2023-12-20T00:15:48;29.58;;;17.85;;
83761;SDS011;73752;49.594;8.734;2023-12-20T00:18:14;34.22;;;18.42;;
83761;SDS011;73752;49.594;8.734;2023-12-20T00:20:39;30.08;;;17.20;;
83761;SDS011;73752;49.594;8.734;2023-12-20T00:23:04;33.92;;;16.92;;
83761;SDS011;73752;49.594;8.734;2023-12-20T00:25:30;37.25;;;17.60;;
83761;SDS011;73752;49.594;8.734;2023-12-20T00:27:55;32.47;;;17.48;;
83761;SDS011;73752;49.594;8.734;2023-12-20T00:30:20;31.48;;;17.88;;
83761;SDS011;73752;49.594;8.734;2023-12-20T00:32:46;32.72;;;15.73;;
83761;SDS011;73752;49.594;8.734;2023-12-20T00:35:18;28.55;;;16.00;;
83761;SDS011;73752;49.594;8.734;2023-12-20T00:37:43;26.98;;;15.60;;
83761;SDS011;73752;49.594;8.734;2023-12-20T00:40:09;30.63;;;15.68;;
83761;SDS011;73752;49.594;8.734;2023-12-20T00:42:34;24.95;;;14.68;;
83761;SDS011;73752;49.594;8.734;2023-12-20T00:45:00;29.35;;;15.68;;
83761;SDS011;73752;49.594;8.734;2023-12-20T00:47:26;32.67;;;16.58;;
83761;SDS011;73752;49.594;8.734;2023-12-20T00:49:51;26.38;;;14.13;;
83761;SDS011;73752;49.594;8.734;2023-12-20T00:52:17;23.70;;;14.73;;
83761;SDS011;73752;49.594;8.734;2023-12-20T00:54:42;26.67;;;15.02;;
83761;SDS011;73752;49.594;8.734;2023-12-20T00:57:08;29.15;;;15.95;;
83761;SDS011;73752;49.594;8.734;2023-12-20T00:59:34;22.58;;;13.73;;
83761;SDS011;73752;49.594;8.734;2023-12-20T01:01:59;24.98;;;13.40;;
83761;SDS011;73752;49.594;8.734;2023-12-20T01:04:24;26.20;;;14.38;;
83761;SDS011;73752;49.594;8.734;2023-12-20T01:06:50;26.73;;;14.02;;
83761;SDS011;73752;49.594;8.734;2023-12-20T01:09:16;26.00;;;12.63;;
83761;SDS011;73752;49.594;8.734;2023-12-20T01:11:42;26.88;;;12.85;;
83761;SDS011;73752;49.594;8.734;2023-12-20T01:14:07;21.88;;;12.57;;
83761;SDS011;73752;49.594;8.734;2023-12-20T01:16:33;19.08;;;11.63;;
83761;SDS011;73752;49.594;8.734;2023-12-20T01:18:58;19.92;;;11.63;;
83761;SDS011;73752;49.594;8.734;2023-12-20T01:21:23;20.55;;;11.75;;
83761;SDS011;73752;49.594;8.734;2023-12-20T01:23:49;18.27;;;10.35;;
83761;SDS011;73752;49.594;8.734;2023-12-20T01:26:14;19.63;;;10.65;;
83761;SDS011;73752;49.594;8.734;2023-12-20T01:28:40;20.75;;;10.98;;
83761;SDS011;73752;49.594;8.734;2023-12-20T01:31:05;18.05;;;10.73;;
83761;SDS011;73752;49.594;8.734;2023-12-20T01:33:31;14.43;;;9.63;;
83761;SDS011;73752;49.594;8.734;2023-12-20T01:35:56;18.45;;;10.07;;
83761;SDS011;73752;49.594;8.734;2023-12-20T01:38:21;16.23;;;9.00;;
83761;SDS011;73752;49.594;8.734;2023-12-20T01:40:47;16.25;;;9.52;;
83761;SDS011;73752;49.594;8.734;2023-12-20T01:43:12;17.05;;;10.07;;
83761;SDS011;73752;49.594;8.734;2023-12-20T01:45:38;16.33;;;8.80;;
83761;SDS011;73752;49.594;8.734;2023-12-20T01:48:03;17.90;;;7.72;;
83761;SDS011;73752;49.594;8.734;2023-12-20T01:50:30;14.13;;;7.32;;
83761;SDS011;73752;49.594;8.734;2023-12-20T01:52:57;13.57;;;7.45;;
83761;SDS011;73752;49.594;8.734;2023-12-20T01:55:24;13.70;;;7.45;;
83761;SDS011;73752;49.594;8.734;2023-12-20T01:57:52;9.00;;;6.03;;
83761;SDS011;73752;49.594;8.734;2023-12-20T02:00:18;10.05;;;6.63;;
83761;SDS011;73752;49.594;8.734;2023-12-20T02:02:45;11.32;;;5.95;;
83761;SDS011;73752;49.594;8.734;2023-12-20T02:05:10;9.70;;;6.15;;
83761;SDS011;73752;49.594;8.734;2023-12-20T02:07:36;11.35;;;6.93;;
83761;SDS011;73752;49.594;8.734;2023-12-20T02:10:02;10.10;;;5.93;;
83761;SDS011;73752;49.594;8.734;2023-12-20T02:12:28;11.10;;;5.32;;
83761;SDS011;73752;49.594;8.734;2023-12-20T02:14:53;10.23;;;5.53;;
83761;SDS011;73752;49.594;8.734;2023-12-20T02:17:19;9.95;;;5.63;;
83761;SDS011;73752;49.594;8.734;2023-12-20T02:19:45;11.98;;;6.47;;
83761;SDS011;73752;49.594;8.734;2023-12-20T02:22:10;10.00;;;5.63;;
83761;SDS011;73752;49.594;8.734;2023-12-20T02:24:36;9.13;;;5.20;;
83761;SDS011;73752;49.594;8.734;2023-12-20T02:27:01;8.88;;;5.25;;
83761;SDS011;73752;49.594;8.734;2023-12-20T02:29:27;9.55;;;5.65;;
83761;SDS011;73752;49.594;8.734;2023-12-20T02:31:53;7.53;;;4.95;;
83761;SDS011;73752;49.594;8.734;2023-12-20T02:34:18;10.55;;;5.45;;
83761;SDS011;73752;49.594;8.734;2023-12-20T02:36:43;10.13;;;5.72;;
83761;SDS011;73752;49.594;8.734;2023-12-20T02:39:08;7.75;;;5.57;;
83761;SDS011;73752;49.594;8.734;2023-12-20T02:41:34;8.98;;;5.57;;
83761;SDS011;73752;49.594;8.734;2023-12-20T02:43:59;9.40;;;6.03;;
83761;SDS011;73752;49.594;8.734;2023-12-20T02:46:25;11.82;;;5.88;;
83761;SDS011;73752;49.594;8.734;2023-12-20T02:48:50;11.60;;;6.80;;
83761;SDS011;73752;49.594;8.734;2023-12-20T02:51:15;10.52;;;6.35;;
83761;SDS011;73752;49.594;8.734;2023-12-20T02:53:41;9.15;;;6.28;;
83761;SDS011;73752;49.594;8.734;2023-12-20T02:56:06;8.98;;;6.05;;
83761;SDS011;73752;49.594;8.734;2023-12-20T02:58:31;11.57;;;6.15;;
83761;SDS011;73752;49.594;8.734;2023-12-20T03:00:57;9.23;;;5.93;;
83761;SDS011;73752;49.594;8.734;2023-12-20T03:03:22;11.73;;;6.03;;
83761;SDS011;73752;49.594;8.734;2023-12-20T03:05:47;8.45;;;6.20;;
83761;SDS011;73752;49.594;8.734;2023-12-20T03:08:13;10.40;;;5.97;;
83761;SDS011;73752;49.594;8.734;2023-12-20T03:10:38;8.85;;;5.72;;
83761;SDS011;73752;49.594;8.734;2023-12-20T03:13:03;9.73;;;6.28;;
83761;SDS011;73752;49.594;8.734;2023-12-20T03:15:29;9.93;;;6.07;;
83761;SDS011;73752;49.594;8.734;2023-12-20T03:17:54;12.27;;;6.60;;
83761;SDS011;73752;49.594;8.734;2023-12-20T03:20:19;11.00;;;5.75;;
83761;SDS011;73752;49.594;8.734;2023-12-20T03:22:45;11.63;;;6.28;;
83761;SDS011;73752;49.594;8.734;2023-12-20T03:25:10;11.00;;;6.05;;
83761;SDS011;73752;49.594;8.734;2023-12-20T03:27:38;10.00;;;5.80;;
83761;SDS011;73752;49.594;8.734;2023-12-20T03:30:04;7.30;;;5.10;;
83761;SDS011;73752;49.594;8.734;2023-12-20T03:32:30;8.48;;;5.13;;
83761;SDS011;73752;49.594;8.734;2023-12-20T03:34:55;8.05;;;4.78;;
83761;SDS011;73752;49.594;8.734;2023-12-20T03:37:21;7.88;;;4.55;;
83761;SDS011;73752;49.594;8.734;2023-12-20T03:39:46;11.32;;;5.55;;
83761;SDS011;73752;49.594;8.734;2023-12-20T03:42:12;9.00;;;4.78;;
83761;SDS011;73752;49.594;8.734;2023-12-20T03:44:38;8.35;;;4.68;;
83761;SDS011;73752;49.594;8.734;2023-12-20T03:47:04;8.07;;;4.65;;
83761;SDS011;73752;49.594;8.734;2023-12-20T03:49:30;8.25;;;5.10;;
83761;SDS011;73752;49.594;8.734;2023-12-20T03:51:55;7.53;;;4.60;;
83761;SDS011;73752;49.594;8.734;2023-12-20T03:54:21;7.45;;;4.38;;
83761;SDS011;73752;49.594;8.734;2023-12-20T03:56:46;6.50;;;4.38;;
83761;SDS011;73752;49.594;8.734;2023-12-20T03:59:11;8.60;;;4.75;;
83761;SDS011;73752;49.594;8.734;2023-12-20T04:01:36;9.70;;;5.15;;
83761;SDS011;73752;49.594;8.734;2023-12-20T04:04:02;7.90;;;5.40;;
83761;SDS011;73752;49.594;8.734;2023-12-20T04:06:27;9.07;;;5.32;;
83761;SDS011;73752;49.594;8.734;2023-12-20T04:08:53;8.68;;;5.22;;
83761;SDS011;73752;49.594;8.734;2023-12-20T04:11:18;8.27;;;5.40;;
83761;SDS011;73752;49.594;8.734;2023-12-20T04:13:43;7.57;;;5.10;;
83761;SDS011;73752;49.594;8.734;2023-12-20T04:16:09;5.45;;;4.15;;
83761;SDS011;73752;49.594;8.734;2023-12-20T04:18:34;8.75;;;4.82;;
83761;SDS011;73752;49.594;8.734;2023-12-20T04:20:59;9.40;;;5.45;;
83761;SDS011;73752;49.594;8.734;2023-12-20T04:23:24;9.48;;;5.68;;
83761;SDS011;73752;49.594;8.734;2023-12-20T04:25:50;8.27;;;5.35;;
83761;SDS011;73752;49.594;8.734;2023-12-20T04:28:15;11.25;;;5.95;;
83761;SDS011;73752;49.594;8.734;2023-12-20T04:30:41;7.82;;;5.60;;
83761;SDS011;73752;49.594;8.734;2023-12-20T04:33:07;7.78;;;5.03;;
83761;SDS011;73752;49.594;8.734;2023-12-20T04:35:32;9.80;;;5.32;;
83761;SDS011;73752;49.594;8.734;2023-12-20T04:37:58;8.38;;;5.45;;
83761;SDS011;73752;49.594;8.734;2023-12-20T04:40:23;11.07;;;5.63;;
83761;SDS011;73752;49.594;8.734;2023-12-20T04:42:48;9.32;;;5.72;;
83761;SDS011;73752;49.594;8.734;2023-12-20T04:45:14;8.02;;;5.80;;
83761;SDS011;73752;49.594;8.734;2023-12-20T04:47:41;10.43;;;5.78;;
83761;SDS011;73752;49.594;8.734;2023-12-20T04:50:07;7.20;;;5.15;;
83761;SDS011;73752;49.594;8.734;2023-12-20T04:52:33;11.52;;;6.15;;
83761;SDS011;73752;49.594;8.734;2023-12-20T04:54:59;10.45;;;5.88;;
83761;SDS011;73752;49.594;8.734;2023-12-20T04:57:24;9.85;;;5.90;;
83761;SDS011;73752;49.594;8.734;2023-12-20T04:59:49;11.32;;;6.07;;
83761;SDS011;73752;49.594;8.734;2023-12-20T05:02:15;12.23;;;6.25;;
83761;SDS011;73752;49.594;8.734;2023-12-20T05:04:40;11.38;;;6.53;;
83761;SDS011;73752;49.594;8.734;2023-12-20T05:07:06;10.45;;;6.25;;
83761;SDS011;73752;49.594;8.734;2023-12-20T05:09:32;11.35;;;7.57;;
83761;SDS011;73752;49.594;8.734;2023-12-20T05:11:57;13.40;;;8.50;;
83761;SDS011;73752;49.594;8.734;2023-12-20T05:14:22;12.90;;;8.15;;
83761;SDS011;73752;49.594;8.734;2023-12-20T05:16:48;14.50;;;9.82;;
83761;SDS011;73752;49.594;8.734;2023-12-20T05:19:13;16.20;;;10.18;;
83761;SDS011;73752;49.594;8.734;2023-12-20T05:21:39;15.35;;;10.48;;
83761;SDS011;73752;49.594;8.734;2023-12-20T05:24:04;21.75;;;12.75;;
83761;SDS011;73752;49.594;8.734;2023-12-20T05:26:30;16.23;;;11.63;;
83761;SDS011;73752;49.594;8.734;2023-12-20T05:28:55;19.13;;;13.45;;
83761;SDS011;73752;49.594;8.734;2023-12-20T05:31:21;21.10;;;13.32;;
83761;SDS011;73752;49.594;8.734;2023-12-20T05:33:46;20.55;;;14.07;;
83761;SDS011;73752;49.594;8.734;2023-12-20T05:36:11;20.77;;;15.00;;
83761;SDS011;73752;49.594;8.734;2023-12-20T05:38:38;21.70;;;14.88;;
83761;SDS011;73752;49.594;8.734;2023-12-20T05:41:04;23.88;;;14.82;;
83761;SDS011;73752;49.594;8.734;2023-12-20T05:43:29;26.88;;;16.23;;
83761;SDS011;73752;49.594;8.734;2023-12-20T05:45:54;23.23;;;14.85;;
83761;SDS011;73752;49.594;8.734;2023-12-20T05:48:20;21.58;;;14.82;;
83761;SDS011;73752;49.594;8.734;2023-12-20T05:50:45;24.60;;;16.48;;
83761;SDS011;73752;49.594;8.734;2023-12-20T05:53:10;24.38;;;16.15;;
83761;SDS011;73752;49.594;8.734;2023-12-20T05:55:36;23.83;;;15.82;;
83761;SDS011;73752;49.594;8.734;2023-12-20T05:58:01;27.10;;;16.90;;
83761;SDS011;73752;49.594;8.734;2023-12-20T06:00:26;29.85;;;16.45;;
83761;SDS011;73752;49.594;8.734;2023-12-20T06:02:52;30.45;;;17.23;;
83761;SDS011;73752;49.594;8.734;2023-12-20T06:05:17;22.52;;;13.05;;
83761;SDS011;73752;49.594;8.734;2023-12-20T06:07:42;25.02;;;15.05;;
83761;SDS011;73752;49.594;8.734;2023-12-20T06:10:09;20.02;;;14.00;;
83761;SDS011;73752;49.594;8.734;2023-12-20T06:12:35;19.85;;;13.68;;
83761;SDS011;73752;49.594;8.734;2023-12-20T06:15:01;19.13;;;12.45;;
83761;SDS011;73752;49.594;8.734;2023-12-20T06:17:27;20.90;;;12.20;;
83761;SDS011;73752;49.594;8.734;2023-12-20T06:19:55;22.20;;;12.55;;
83761;SDS011;73752;49.594;8.734;2023-12-20T06:22:20;17.52;;;11.65;;
83761;SDS011;73752;49.594;8.734;2023-12-20T06:24:45;18.90;;;13.80;;
83761;SDS011;73752;49.594;8.734;2023-12-20T06:27:11;22.58;;;13.70;;
83761;SDS011;73752;49.594;8.734;2023-12-20T06:29:36;24.40;;;14.48;;
83761;SDS011;73752;49.594;8.734;2023-12-20T06:32:01;29.45;;;16.30;;
83761;SDS011;73752;49.594;8.734;2023-12-20T06:34:27;30.77;;;16.63;;
83761;SDS011;73752;49.594;8.734;2023-12-20T06:36:52;36.22;;;17.85;;
83761;SDS011;73752;49.594;8.734;2023-12-20T06:39:17;37.60;;;18.45;;
83761;SDS011;73752;49.594;8.734;2023-12-20T06:41:43;36.45;;;18.13;;
83761;SDS011;73752;49.594;8.734;2023-12-20T06:44:08;37.80;;;19.80;;
83761;SDS011;73752;49.594;8.734;2023-12-20T06:46:34;32.05;;;17.65;;
83761;SDS011;73752;49.594;8.734;2023-12-20T06:48:59;36.38;;;20.98;;
83761;SDS011;73752;49.594;8.734;2023-12-20T06:51:24;37.88;;;19.40;;
83761;SDS011;73752;49.594;8.734;2023-12-20T06:53:51;35.72;;;20.42;;
83761;SDS011;73752;49.594;8.734;2023-12-20T06:56:17;33.83;;;19.42;;
83761;SDS011;73752;49.594;8.734;2023-12-20T06:58:42;38.13;;;21.17;;
83761;SDS011;73752;49.594;8.734;2023-12-20T07:01:11;46.40;;;23.35;;
83761;SDS011;73752;49.594;8.734;2023-12-20T07:03:37;47.75;;;24.35;;
83761;SDS011;73752;49.594;8.734;2023-12-20T07:06:03;42.92;;;24.00;;
83761;SDS011;73752;49.594;8.734;2023-12-20T07:08:28;43.90;;;23.70;;
83761;SDS011;73752;49.594;8.734;2023-12-20T07:10:54;56.63;;;28.02;;
83761;SDS011;73752;49.594;8.734;2023-12-20T07:13:19;51.67;;;23.85;;
83761;SDS011;73752;49.594;8.734;2023-12-20T07:15:44;45.88;;;22.40;;
83761;SDS011;73752;49.594;8.734;2023-12-20T07:18:10;43.55;;;20.90;;
83761;SDS011;73752;49.594;8.734;2023-12-20T07:20:36;37.70;;;20.02;;
83761;SDS011;73752;49.594;8.734;2023-12-20T07:23:01;42.00;;;19.98;;
83761;SDS011;73752;49.594;8.734;2023-12-20T07:25:26;47.72;;;20.15;;
83761;SDS011;73752;49.594;8.734;2023-12-20T07:27:51;44.92;;;20.95;;
83761;SDS011;73752;49.594;8.734;2023-12-20T07:30:17;43.30;;;19.50;;
83761;SDS011;73752;49.594;8.734;2023-12-20T07:32:42;47.55;;;18.83;;
83761;SDS011;73752;49.594;8.734;2023-12-20T07:35:08;39.03;;;18.58;;
83761;SDS011;73752;49.594;8.734;2023-12-20T07:37:33;38.78;;;18.50;;
83761;SDS011;73752;49.594;8.734;2023-12-20T07:39:58;39.38;;;17.73;;
83761;SDS011;73752;49.594;8.734;2023-12-20T07:42:24;31.88;;;15.82;;
83761;SDS011;73752;49.594;8.734;2023-12-20T07:44:49;28.40;;;14.52;;
83761;SDS011;73752;49.594;8.734;2023-12-20T07:47:14;37.70;;;14.77;;
83761;SDS011;73752;49.594;8.734;2023-12-20T07:49:43;29.20;;;14.63;;
83761;SDS011;73752;49.594;8.734;2023-12-20T07:52:08;32.10;;;15.25;;
83761;SDS011;73752;49.594;8.734;2023-12-20T07:54:34;29.85;;;14.55;;
83761;SDS011;73752;49.594;8.734;2023-12-20T07:56:59;26.42;;;14.30;;
83761;SDS011;73752;49.594;8.734;2023-12-20T07:59:24;25.95;;;14.20;;
83761;SDS011;73752;49.594;8.734;2023-12-20T08:01:50;28.58;;;14.60;;
83761;SDS011;73752;49.594;8.734;2023-12-20T08:04:15;32.05;;;14.52;;
83761;SDS011;73752;49.594;8.734;2023-12-20T08:06:40;29.90;;;13.98;;
83761;SDS011;73752;49.594;8.734;2023-12-20T08:09:06;25.60;;;12.98;;
83761;SDS011;73752;49.594;8.734;2023-12-20T08:11:31;31.27;;;12.57;;
83761;SDS011;73752;49.594;8.734;2023-12-20T08:13:56;31.98;;;12.15;;
83761;SDS011;73752;49.594;8.734;2023-12-20T08:16:22;28.55;;;11.52;;
83761;SDS011;73752;49.594;8.734;2023-12-20T08:18:47;22.48;;;9.38;;
83761;SDS011;73752;49.594;8.734;2023-12-20T08:21:12;15.02;;;8.13;;
83761;SDS011;73752;49.594;8.734;2023-12-20T08:23:38;18.55;;;8.45;;
83761;SDS011;73752;49.594;8.734;2023-12-20T08:26:06;14.68;;;8.68;;
83761;SDS011;73752;49.594;8.734;2023-12-20T08:28:32;15.27;;;7.32;;
83761;SDS011;73752;49.594;8.734;2023-12-20T08:30:58;13.68;;;7.18;;
83761;SDS011;73752;49.594;8.734;2023-12-20T08:33:23;15.73;;;6.45;;
83761;SDS011;73752;49.594;8.734;2023-12-20T08:35:49;17.13;;;6.65;;
83761;SDS011;73752;49.594;8.734;2023-12-20T08:38:14;17.15;;;6.65;;
83761;SDS011;73752;49.594;8.734;2023-12-20T08:40:39;17.58;;;6.47;;
83761;SDS011;73752;49.594;8.734;2023-12-20T08:43:05;16.17;;;8.52;;
83761;SDS011;73752;49.594;8.734;2023-12-20T08:45:30;15.98;;;7.15;;
83761;SDS011;73752;49.594;8.734;2023-12-20T08:47:56;15.45;;;6.93;;
83761;SDS011;73752;49.594;8.734;2023-12-20T08:50:21;12.82;;;6.50;;
83761;SDS011;73752;49.594;8.734;2023-12-20T08:52:46;14.48;;;6.15;;
83761;SDS011;73752;49.594;8.734;2023-12-20T08:55:12;12.15;;;5.70;;
83761;SDS011;73752;49.594;8.734;2023-12-20T08:57:37;12.95;;;5.32;;
83761;SDS011;73752;49.594;8.734;2023-12-20T09:00:03;18.02;;;5.97;;
83761;SDS011;73752;49.594;8.734;2023-12-20T09:02:29;16.02;;;6.22;;
83761;SDS011;73752;49.594;8.734;2023-12-20T09:04:54;16.52;;;5.38;;
83761;SDS011;73752;49.594;8.734;2023-12-20T09:07:24;12.07;;;4.95;;
83761;SDS011;73752;49.594;8.734;2023-12-20T09:09:50;14.40;;;5.68;;
83761;SDS011;73752;49.594;8.734;2023-12-20T09:12:17;10.32;;;5.07;;
83761;SDS011;73752;49.594;8.734;2023-12-20T09:14:46;13.90;;;4.47;;
83761;SDS011;73752;49.594;8.734;2023-12-20T09:17:12;12.10;;;4.95;;
83761;SDS011;73752;49.594;8.734;2023-12-20T09:19:38;7.80;;;4.95;;
83761;SDS011;73752;49.594;8.734;2023-12-20T09:22:04;13.00;;;5.28;;
83761;SDS011;73752;49.594;8.734;2023-12-20T09:24:30;10.27;;;5.13;;
83761;SDS011;73752;49.594;8.734;2023-12-20T09:26:55;12.07;;;4.60;;
83761;SDS011;73752;49.594;8.734;2023-12-20T09:29:20;15.40;;;5.20;;
83761;SDS011;73752;49.594;8.734;2023-12-20T09:31:46;7.13;;;4.22;;
83761;SDS011;73752;49.594;8.734;2023-12-20T09:34:11;11.55;;;4.53;;
83761;SDS011;73752;49.594;8.734;2023-12-20T09:36:37;9.93;;;4.43;;
83761;SDS011;73752;49.594;8.734;2023-12-20T09:39:05;10.13;;;4.43;;
83761;SDS011;73752;49.594;8.734;2023-12-20T09:41:31;5.93;;;3.42;;
83761;SDS011;73752;49.594;8.734;2023-12-20T09:44:03;13.27;;;4.30;;
83761;SDS011;73752;49.594;8.734;2023-12-20T09:46:28;10.13;;;3.67;;
83761;SDS011;73752;49.594;8.734;2023-12-20T09:48:58;12.43;;;4.10;;
83761;SDS011;73752;49.594;8.734;2023-12-20T09:51:25;13.45;;;3.58;;
83761;SDS011;73752;49.594;8.734;2023-12-20T09:53:53;12.63;;;3.83;;
83761;SDS011;73752;49.594;8.734;2023-12-20T09:56:19;13.10;;;4.45;;
83761;SDS011;73752;49.594;8.734;2023-12-20T09:58:45;17.77;;;6.45;;
83761;SDS011;73752;49.594;8.734;2023-12-20T10:01:11;12.45;;;4.28;;
83761;SDS011;73752;49.594;8.734;2023-12-20T10:03:37;10.80;;;3.70;;
83761;SDS011;73752;49.594;8.734;2023-12-20T10:06:05;18.33;;;4.53;;
83761;SDS011;73752;49.594;8.734;2023-12-20T10:08:31;14.30;;;4.13;;
83761;SDS011;73752;49.594;8.734;2023-12-20T10:10:57;12.02;;;3.60;;
83761;SDS011;73752;49.594;8.734;2023-12-20T10:13:27;9.88;;;3.80;;
83761;SDS011;73752;49.594;8.734;2023-12-20T10:15:54;9.75;;;3.45;;
83761;SDS011;73752;49.594;8.734;2023-12-20T10:18:20;7.68;;;3.55;;
83761;SDS011;73752;49.594;8.734;2023-12-20T10:20:45;10.18;;;4.18;;
83761;SDS011;73752;49.594;8.734;2023-12-20T10:23:11;10.60;;;3.90;;
83761;SDS011;73752;49.594;8.734;2023-12-20T10:25:37;11.68;;;4.43;;
83761;SDS011;73752;49.594;8.734;2023-12-20T10:28:13;16.30;;;4.30;;
83761;SDS011;73752;49.594;8.734;2023-12-20T10:30:39;15.85;;;3.85;;
83761;SDS011;73752;49.594;8.734;2023-12-20T10:33:09;13.25;;;4.18;;
83761;SDS011;73752;49.594;8.734;2023-12-20T10:35:37;11.57;;;4.20;;
83761;SDS011;73752;49.594;8.734;2023-12-20T10:38:04;15.05;;;5.00;;
83761;SDS011;73752;49.594;8.734;2023-12-20T10:40:30;11.02;;;4.07;;
83761;SDS011;73752;49.594;8.734;2023-12-20T10:42:57;8.23;;;3.60;;
83761;SDS011;73752;49.594;8.734;2023-12-20T10:45:23;9.23;;;3.78;;
83761;SDS011;73752;49.594;8.734;2023-12-20T10:47:48;14.05;;;3.92;;
83761;SDS011;73752;49.594;8.734;2023-12-20T10:50:15;12.98;;;4.55;;
83761;SDS011;73752;49.594;8.734;2023-12-20T10:52:41;15.55;;;3.97;;
83761;SDS011;73752;49.594;8.734;2023-12-20T10:55:07;12.40;;;3.88;;
83761;SDS011;73752;49.594;8.734;2023-12-20T10:57:33;14.35;;;4.63;;
83761;SDS011;73752;49.594;8.734;2023-12-20T11:00:01;17.98;;;4.28;;
83761;SDS011;73752;49.594;8.734;2023-12-20T11:02:32;19.23;;;4.05;;
83761;SDS011;73752;49.594;8.734;2023-12-20T11:05:07;13.20;;;3.40;;
83761;SDS011;73752;49.594;8.734;2023-12-20T11:07:48;14.35;;;4.07;;
83761;SDS011;73752;49.594;8.734;2023-12-20T11:10:19;15.90;;;3.63;;
83761;SDS011;73752;49.594;8.734;2023-12-20T11:12:52;20.45;;;3.88;;
83761;SDS011;73752;49.594;8.734;2023-12-20T11:15:22;14.82;;;4.07;;
83761;SDS011;73752;49.594;8.734;2023-12-20T11:17:56;17.35;;;4.28;;
83761;SDS011;73752;49.594;8.734;2023-12-20T11:20:34;12.82;;;3.20;;
83761;SDS011;73752;49.594;8.734;2023-12-20T11:23:02;14.45;;;3.63;;
83761;SDS011;73752;49.594;8.734;2023-12-20T11:25:27;19.98;;;3.70;;
83761;SDS011;73752;49.594;8.734;2023-12-20T11:28:09;12.13;;;3.35;;
83761;SDS011;73752;49.594;8.734;2023-12-20T11:30:42;14.98;;;3.15;;
83761;SDS011;73752;49.594;8.734;2023-12-20T11:33:10;16.23;;;3.67;;
83761;SDS011;73752;49.594;8.734;2023-12-20T11:35:35;14.35;;;4.32;;
83761;SDS011;73752;49.594;8.734;2023-12-20T11:38:02;15.05;;;3.92;;
83761;SDS011;73752;49.594;8.734;2023-12-20T11:40:27;18.15;;;3.72;;
83761;SDS011;73752;49.594;8.734;2023-12-20T11:42:52;22.90;;;6.45;;
83761;SDS011;73752;49.594;8.734;2023-12-20T11:45:23;22.58;;;4.63;;
83761;SDS011;73752;49.594;8.734;2023-12-20T11:47:50;14.43;;;3.60;;
83761;SDS011;73752;49.594;8.734;2023-12-20T11:50:16;19.80;;;4.43;;
83761;SDS011;73752;49.594;8.734;2023-12-20T11:52:45;17.88;;;3.78;;
83761;SDS011;73752;49.594;8.734;2023-12-20T11:55:11;14.73;;;3.95;;
83761;SDS011;73752;49.594;8.734;2023-12-20T11:57:37;12.65;;;3.47;;
83761;SDS011;73752;49.594;8.734;2023-12-20T12:00:03;13.57;;;3.58;;
83761;SDS011;73752;49.594;8.734;2023-12-20T12:02:29;12.57;;;3.70;;
83761;SDS011;73752;49.594;8.734;2023-12-20T12:04:55;15.60;;;3.65;;
83761;SDS011;73752;49.594;8.734;2023-12-20T12:07:21;10.60;;;3.03;;
83761;SDS011;73752;49.594;8.734;2023-12-20T12:09:47;10.68;;;4.07;;
83761;SDS011;73752;49.594;8.734;2023-12-20T12:12:12;13.93;;;3.33;;
83761;SDS011;73752;49.594;8.734;2023-12-20T12:14:38;17.40;;;4.45;;
83761;SDS011;73752;49.594;8.734;2023-12-20T12:17:09;14.13;;;3.90;;
83761;SDS011;73752;49.594;8.734;2023-12-20T12:19:35;13.48;;;4.20;;
83761;SDS011;73752;49.594;8.734;2023-12-20T12:22:08;16.67;;;3.97;;
83761;SDS011;73752;49.594;8.734;2023-12-20T12:24:45;24.17;;;4.47;;
83761;SDS011;73752;49.594;8.734;2023-12-20T12:27:11;16.42;;;4.20;;
83761;SDS011;73752;49.594;8.734;2023-12-20T12:29:38;17.23;;;4.45;;
83761;SDS011;73752;49.594;8.734;2023-12-20T12:32:07;12.95;;;3.70;;
83761;SDS011;73752;49.594;8.734;2023-12-20T12:34:33;12.70;;;3.53;;
83761;SDS011;73752;49.594;8.734;2023-12-20T12:36:59;13.07;;;3.97;;
83761;SDS011;73752;49.594;8.734;2023-12-20T12:39:25;14.63;;;4.03;;
83761;SDS011;73752;49.594;8.734;2023-12-20T12:41:51;18.63;;;4.10;;
83761;SDS011;73752;49.594;8.734;2023-12-20T12:44:16;16.52;;;3.95;;
83761;SDS011;73752;49.594;8.734;2023-12-20T12:46:42;14.25;;;3.63;;
83761;SDS011;73752;49.594;8.734;2023-12-20T12:49:08;17.25;;;4.35;;
83761;SDS011;73752;49.594;8.734;2023-12-20T12:51:33;12.05;;;4.10;;
83761;SDS011;73752;49.594;8.734;2023-12-20T12:53:59;18.20;;;5.43;;
83761;SDS011;73752;49.594;8.734;2023-12-20T12:56:24;15.55;;;4.20;;
83761;SDS011;73752;49.594;8.734;2023-12-20T12:58:49;13.15;;;3.90;;
83761;SDS011;73752;49.594;8.734;2023-12-20T13:01:15;20.73;;;4.78;;
83761;SDS011;73752;49.594;8.734;2023-12-20T13:03:40;14.68;;;4.75;;
83761;SDS011;73752;49.594;8.734;2023-12-20T13:06:05;16.40;;;4.45;;
83761;SDS011;73752;49.594;8.734;2023-12-20T13:08:33;12.45;;;4.65;;
83761;SDS011;73752;49.594;8.734;2023-12-20T13:10:59;14.73;;;5.32;;
83761;SDS011;73752;49.594;8.734;2023-12-20T13:13:26;17.55;;;5.90;;
83761;SDS011;73752;49.594;8.734;2023-12-20T13:15:51;18.55;;;4.55;;
83761;SDS011;73752;49.594;8.734;2023-12-20T13:18:19;14.38;;;4.55;;
83761;SDS011;73752;49.594;8.734;2023-12-20T13:20:45;18.33;;;4.60;;
83761;SDS011;73752;49.594;8.734;2023-12-20T13:23:10;17.45;;;4.15;;
83761;SDS011;73752;49.594;8.734;2023-12-20T13:25:36;12.23;;;4.30;;
83761;SDS011;73752;49.594;8.734;2023-12-20T13:28:01;17.80;;;4.55;;
83761;SDS011;73752;49.594;8.734;2023-12-20T13:30:28;17.73;;;4.80;;
83761;SDS011;73752;49.594;8.734;2023-12-20T13:32:53;17.98;;;4.80;;
83761;SDS011;73752;49.594;8.734;2023-12-20T13:35:19;19.88;;;4.40;;
83761;SDS011;73752;49.594;8.734;2023-12-20T13:37:44;13.57;;;4.20;;
83761;SDS011;73752;49.594;8.734;2023-12-20T13:40:09;11.95;;;4.30;;
83761;SDS011;73752;49.594;8.734;2023-12-20T13:42:35;15.80;;;4.53;;
83761;SDS011;73752;49.594;8.734;2023-12-20T13:45:00;17.05;;;3.78;;
83761;SDS011;73752;49.594;8.734;2023-12-20T13:47:26;12.38;;;3.40;;
83761;SDS011;73752;49.594;8.734;2023-12-20T13:49:51;16.70;;;3.92;;
83761;SDS011;73752;49.594;8.734;2023-12-20T13:52:16;13.00;;;3.78;;
83761;SDS011;73752;49.594;8.734;2023-12-20T13:54:42;16.92;;;4.28;;
83761;SDS011;73752;49.594;8.734;2023-12-20T13:57:07;14.13;;;3.97;;
83761;SDS011;73752;49.594;8.734;2023-12-20T13:59:32;11.55;;;3.80;;
83761;SDS011;73752;49.594;8.734;2023-12-20T14:01:57;16.30;;;3.75;;
83761;SDS011;73752;49.594;8.734;2023-12-20T14:04:23;23.55;;;5.88;;
83761;SDS011;73752;49.594;8.734;2023-12-20T14:06:48;17.02;;;4.25;;
83761;SDS011;73752;49.594;8.734;2023-12-20T14:09:13;14.27;;;4.35;;
83761;SDS011;73752;49.594;8.734;2023-12-20T14:11:39;15.65;;;3.80;;
83761;SDS011;73752;49.594;8.734;2023-12-20T14:14:06;14.40;;;4.50;;
83761;SDS011;73752;49.594;8.734;2023-12-20T14:16:32;6.68;;;3.15;;
83761;SDS011;73752;49.594;8.734;2023-12-20T14:18:58;15.00;;;3.53;;
83761;SDS011;73752;49.594;8.734;2023-12-20T14:21:24;18.65;;;3.85;;
83761;SDS011;73752;49.594;8.734;2023-12-20T14:23:49;21.17;;;3.95;;
83761;SDS011;73752;49.594;8.734;2023-12-20T14:26:14;14.90;;;3.38;;